sensor_id;sensor_type;location;lat;lon;timestamp;pressure;altitude;pressure_sealevel;temperature;humidity
31082;BME280;17737;52.586;13.284;2023-02-19T00:01:50;100987.75;;;4.98;90.21
31082;BME280;17737;52.586;13.284;2023-02-19T00:04:20;100992.84;;;5.01;90.24
31082;BME280;17737;52.586;13.284;2023-02-19T00:06:49;100993.03;;;4.88;89.49
31082;BME280;17737;52.586;13.284;2023-02-19T00:09:19;100985.59;;;4.92;89.78
31082;BME280;17737;52.586;13.284;2023-02-19T00:11:47;100983.69;;;4.83;90.75
31082;BME280;17737;52.586;13.284;2023-02-19T00:14:17;100985.84;;;4.89;90.71
31082;BME280;17737;52.586;13.284;2023-02-19T00:16:47;100977.34;;;4.95;90.36
31082;BME280;17737;52.586;13.284;2023-02-19T00:19:17;100981.50;;;4.88;90.37
31082;BME280;17737;52.586;13.284;2023-02-19T00:21:47;100991.06;;;4.90;90.24
31082;BME280;17737;52.586;13.284;2023-02-19T00:24:19;100987.78;;;4.87;90.00
31082;BME280;17737;52.586;13.284;2023-02-19T00:26:48;100983.19;;;4.89;89.96
31082;BME280;17737;52.586;13.284;2023-02-19T00:29:17;100980.75;;;4.86;89.73
31082;BME280;17737;52.586;13.284;2023-02-19T00:31:47;100981.16;;;4.81;90.21
31082;BME280;17737;52.586;13.284;2023-02-19T00:34:15;100973.84;;;4.83;90.85
31082;BME280;17737;52.586;13.284;2023-02-19T00:36:43;100967.41;;;4.86;90.73
31082;BME280;17737;52.586;13.284;2023-02-19T00:39:14;100957.72;;;4.85;89.92
31082;BME280;17737;52.586;13.284;2023-02-19T00:41:45;100953.59;;;4.81;90.22
31082;BME280;17737;52.586;13.284;2023-02-19T00:44:13;100951.66;;;4.83;89.57
31082;BME280;17737;52.586;13.284;2023-02-19T00:46:44;100957.59;;;4.86;89.73
31082;BME280;17737;52.586;13.284;2023-02-19T00:49:16;100962.06;;;4.97;89.74
31082;BME280;17737;52.586;13.284;2023-02-19T00:51:45;100958.19;;;4.90;89.62
31082;BME280;17737;52.586;13.284;2023-02-19T00:54:14;100956.13;;;4.82;90.61
31082;BME280;17737;52.586;13.284;2023-02-19T00:56:43;100953.88;;;4.78;90.66
31082;BME280;17737;52.586;13.284;2023-02-19T00:59:12;100946.06;;;4.86;89.83
31082;BME280;17737;52.586;13.284;2023-02-19T01:01:41;100944.59;;;4.82;90.09
31082;BME280;17737;52.586;13.284;2023-02-19T01:04:11;100949.72;;;4.85;89.98
31082;BME280;17737;52.586;13.284;2023-02-19T01:06:40;100940.38;;;4.79;90.37
31082;BME280;17737;52.586;13.284;2023-02-19T01:09:08;100937.25;;;4.74;90.15
31082;BME280;17737;52.586;13.284;2023-02-19T01:11:36;100932.78;;;4.75;90.90
31082;BME280;17737;52.586;13.284;2023-02-19T01:14:05;100936.00;;;4.78;90.85
31082;BME280;17737;52.586;13.284;2023-02-19T01:16:33;100937.31;;;4.84;90.60
31082;BME280;17737;52.586;13.284;2023-02-19T01:19:02;100927.38;;;4.86;91.12
31082;BME280;17737;52.586;13.284;2023-02-19T01:21:30;100917.78;;;4.83;90.68
31082;BME280;17737;52.586;13.284;2023-02-19T01:23:58;100915.09;;;4.83;90.75
31082;BME280;17737;52.586;13.284;2023-02-19T01:26:28;100919.50;;;4.84;90.99
31082;BME280;17737;52.586;13.284;2023-02-19T01:28:58;100910.28;;;4.88;91.41
31082;BME280;17737;52.586;13.284;2023-02-19T01:31:28;100903.47;;;4.84;90.87
31082;BME280;17737;52.586;13.284;2023-02-19T01:33:59;100889.97;;;4.97;91.21
31082;BME280;17737;52.586;13.284;2023-02-19T01:36:31;100887.16;;;4.99;90.36
31082;BME280;17737;52.586;13.284;2023-02-19T01:39:02;100906.75;;;4.88;90.55
31082;BME280;17737;52.586;13.284;2023-02-19T01:41:35;100906.53;;;4.80;90.86
31082;BME280;17737;52.586;13.284;2023-02-19T01:44:08;100901.91;;;4.82;90.85
31082;BME280;17737;52.586;13.284;2023-02-19T01:47:16;100895.91;;;4.69;90.83
31082;BME280;17737;52.586;13.284;2023-02-19T01:49:48;100893.44;;;4.77;91.11
31082;BME280;17737;52.586;13.284;2023-02-19T01:52:24;100894.53;;;4.74;90.99
31082;BME280;17737;52.586;13.284;2023-02-19T01:54:57;100889.22;;;4.74;91.00
31082;BME280;17737;52.586;13.284;2023-02-19T01:57:29;100885.41;;;4.77;90.20
31082;BME280;17737;52.586;13.284;2023-02-19T02:00:03;100883.16;;;4.72;89.03
31082;BME280;17737;52.586;13.284;2023-02-19T02:02:36;100872.59;;;4.71;89.12
31082;BME280;17737;52.586;13.284;2023-02-19T02:05:09;100862.94;;;4.59;89.91
31082;BME280;17737;52.586;13.284;2023-02-19T02:07:44;100850.16;;;4.42;90.76
31082;BME280;17737;52.586;13.284;2023-02-19T02:10:30;100861.09;;;4.39;91.08
31082;BME280;17737;52.586;13.284;2023-02-19T02:12:58;100855.22;;;4.45;91.37
31082;BME280;17737;52.586;13.284;2023-02-19T02:15:29;100867.16;;;4.41;90.30
31082;BME280;17737;52.586;13.284;2023-02-19T02:18:13;100872.56;;;4.50;89.57
31082;BME280;17737;52.586;13.284;2023-02-19T02:21:03;100866.97;;;4.53;89.95
31082;BME280;17737;52.586;13.284;2023-02-19T02:23:51;100869.16;;;4.48;89.39
31082;BME280;17737;52.586;13.284;2023-02-19T02:26:54;100862.00;;;4.49;89.37
31082;BME280;17737;52.586;13.284;2023-02-19T02:33:00;100863.97;;;4.47;88.83
31082;BME280;17737;52.586;13.284;2023-02-19T02:35:43;100867.59;;;4.46;89.75
31082;BME280;17737;52.586;13.284;2023-02-19T02:38:15;100871.84;;;4.48;89.38
31082;BME280;17737;52.586;13.284;2023-02-19T02:40:49;100872.28;;;4.53;88.93
31082;BME280;17737;52.586;13.284;2023-02-19T02:43:18;100860.31;;;4.48;90.09
31082;BME280;17737;52.586;13.284;2023-02-19T02:45:48;100858.16;;;4.42;89.83
31082;BME280;17737;52.586;13.284;2023-02-19T02:48:25;100862.75;;;4.40;90.54
31082;BME280;17737;52.586;13.284;2023-02-19T02:50:59;100873.94;;;4.34;90.74
31082;BME280;17737;52.586;13.284;2023-02-19T02:53:34;100878.91;;;4.38;91.15
31082;BME280;17737;52.586;13.284;2023-02-19T02:56:25;100871.63;;;4.29;91.13
31082;BME280;17737;52.586;13.284;2023-02-19T02:58:57;100867.03;;;4.31;91.00
31082;BME280;17737;52.586;13.284;2023-02-19T03:01:31;100870.56;;;4.32;91.50
31082;BME280;17737;52.586;13.284;2023-02-19T03:04:26;100876.03;;;4.30;90.91
31082;BME280;17737;52.586;13.284;2023-02-19T03:07:02;100878.69;;;4.30;91.28
31082;BME280;17737;52.586;13.284;2023-02-19T03:09:37;100879.78;;;4.28;91.14
31082;BME280;17737;52.586;13.284;2023-02-19T03:12:11;100886.09;;;4.27;91.55
31082;BME280;17737;52.586;13.284;2023-02-19T03:15:05;100890.78;;;4.34;91.31
31082;BME280;17737;52.586;13.284;2023-02-19T03:17:59;100897.03;;;4.13;91.76
31082;BME280;17737;52.586;13.284;2023-02-19T03:20:50;100887.94;;;4.04;92.72
31082;BME280;17737;52.586;13.284;2023-02-19T03:23:22;100897.28;;;4.10;91.55
31082;BME280;17737;52.586;13.284;2023-02-19T03:26:16;100899.56;;;4.14;92.58
31082;BME280;17737;52.586;13.284;2023-02-19T03:28:46;100885.63;;;4.11;91.64
31082;BME280;17737;52.586;13.284;2023-02-19T03:31:37;100906.00;;;4.01;92.61
31082;BME280;17737;52.586;13.284;2023-02-19T03:34:14;100900.88;;;4.09;92.68
31082;BME280;17737;52.586;13.284;2023-02-19T03:36:52;100898.47;;;4.06;91.70
31082;BME280;17737;52.586;13.284;2023-02-19T03:39:27;100895.97;;;3.93;91.44
31082;BME280;17737;52.586;13.284;2023-02-19T03:42:00;100906.97;;;3.89;91.42
31082;BME280;17737;52.586;13.284;2023-02-19T03:44:39;100909.53;;;3.79;91.17
31082;BME280;17737;52.586;13.284;2023-02-19T03:47:15;100910.50;;;3.67;91.46
31082;BME280;17737;52.586;13.284;2023-02-19T03:49:54;100905.78;;;3.71;90.88
31082;BME280;17737;52.586;13.284;2023-02-19T03:52:35;100900.31;;;3.72;90.05
31082;BME280;17737;52.586;13.284;2023-02-19T03:55:11;100912.56;;;3.63;90.42
31082;BME280;17737;52.586;13.284;2023-02-19T03:57:46;100908.06;;;3.53;90.66
31082;BME280;17737;52.586;13.284;2023-02-19T04:00:23;100910.13;;;3.60;90.30
31082;BME280;17737;52.586;13.284;2023-02-19T04:03:01;100918.47;;;3.45;90.75
31082;BME280;17737;52.586;13.284;2023-02-19T04:05:40;100911.81;;;3.50;90.73
31082;BME280;17737;52.586;13.284;2023-02-19T04:08:15;100917.84;;;3.52;90.68
31082;BME280;17737;52.586;13.284;2023-02-19T04:10:46;100916.88;;;3.42;90.84
31082;BME280;17737;52.586;13.284;2023-02-19T04:13:19;100927.66;;;3.41;90.74
31082;BME280;17737;52.586;13.284;2023-02-19T04:15:55;100920.53;;;3.41;90.58
31082;BME280;17737;52.586;13.284;2023-02-19T04:18:31;100926.91;;;3.39;90.45
31082;BME280;17737;52.586;13.284;2023-02-19T04:21:04;100919.78;;;3.39;90.62
31082;BME280;17737;52.586;13.284;2023-02-19T04:23:38;100927.66;;;3.30;90.97
31082;BME280;17737;52.586;13.284;2023-02-19T04:26:11;100939.22;;;3.18;91.67
31082;BME280;17737;52.586;13.284;2023-02-19T04:28:41;100936.44;;;3.19;91.31
31082;BME280;17737;52.586;13.284;2023-02-19T04:31:10;100941.16;;;3.16;91.13
31082;BME280;17737;52.586;13.284;2023-02-19T04:33:39;100938.34;;;3.06;91.28
31082;BME280;17737;52.586;13.284;2023-02-19T04:36:10;100948.25;;;3.04;92.20
31082;BME280;17737;52.586;13.284;2023-02-19T04:38:38;100948.41;;;3.14;91.78
31082;BME280;17737;52.586;13.284;2023-02-19T04:41:07;100949.63;;;3.21;91.41
31082;BME280;17737;52.586;13.284;2023-02-19T04:43:36;100947.97;;;3.20;91.29
31082;BME280;17737;52.586;13.284;2023-02-19T04:46:04;100948.75;;;3.09;91.66
31082;BME280;17737;52.586;13.284;2023-02-19T04:48:32;100957.69;;;3.08;92.02
31082;BME280;17737;52.586;13.284;2023-02-19T04:51:04;100963.53;;;3.13;91.79
31082;BME280;17737;52.586;13.284;2023-02-19T04:53:35;100964.47;;;3.01;91.77
31082;BME280;17737;52.586;13.284;2023-02-19T04:56:07;100961.91;;;3.00;91.67
31082;BME280;17737;52.586;13.284;2023-02-19T04:58:37;100963.63;;;3.01;91.68
31082;BME280;17737;52.586;13.284;2023-02-19T05:01:06;100960.59;;;3.05;91.87
31082;BME280;17737;52.586;13.284;2023-02-19T05:03:35;100959.22;;;2.89;91.63
31082;BME280;17737;52.586;13.284;2023-02-19T05:06:05;100960.50;;;2.83;92.11
31082;BME280;17737;52.586;13.284;2023-02-19T05:08:36;100965.44;;;2.77;92.26
31082;BME280;17737;52.586;13.284;2023-02-19T05:11:06;100974.56;;;2.85;92.63
31082;BME280;17737;52.586;13.284;2023-02-19T05:13:37;100965.81;;;2.83;92.35
31082;BME280;17737;52.586;13.284;2023-02-19T05:16:08;100971.38;;;2.80;92.85
31082;BME280;17737;52.586;13.284;2023-02-19T05:18:39;100963.91;;;2.85;92.10
31082;BME280;17737;52.586;13.284;2023-02-19T05:21:09;100969.78;;;2.78;92.62
31082;BME280;17737;52.586;13.284;2023-02-19T05:23:40;100956.72;;;2.75;93.17
31082;BME280;17737;52.586;13.284;2023-02-19T05:26:11;100956.72;;;2.75;93.27
31082;BME280;17737;52.586;13.284;2023-02-19T05:28:42;100958.00;;;2.69;93.24
31082;BME280;17737;52.586;13.284;2023-02-19T05:31:11;100964.69;;;2.75;92.85
31082;BME280;17737;52.586;13.284;2023-02-19T05:33:40;100966.72;;;2.71;93.00
31082;BME280;17737;52.586;13.284;2023-02-19T05:36:11;100973.97;;;2.69;93.09
31082;BME280;17737;52.586;13.284;2023-02-19T05:38:41;100967.34;;;2.75;93.48
31082;BME280;17737;52.586;13.284;2023-02-19T05:41:11;100971.16;;;2.83;93.45
31082;BME280;17737;52.586;13.284;2023-02-19T05:43:42;100971.63;;;2.77;93.58
31082;BME280;17737;52.586;13.284;2023-02-19T05:46:14;100968.09;;;2.77;93.31
31082;BME280;17737;52.586;13.284;2023-02-19T05:48:43;100967.25;;;2.76;93.29
31082;BME280;17737;52.586;13.284;2023-02-19T05:51:12;100974.31;;;2.88;92.61
31082;BME280;17737;52.586;13.284;2023-02-19T05:53:44;100977.06;;;2.76;92.63
31082;BME280;17737;52.586;13.284;2023-02-19T05:56:26;100965.31;;;2.78;92.35
31082;BME280;17737;52.586;13.284;2023-02-19T05:58:58;100978.28;;;2.83;92.73
31082;BME280;17737;52.586;13.284;2023-02-19T06:01:29;100964.38;;;2.79;91.98
31082;BME280;17737;52.586;13.284;2023-02-19T06:03:57;100973.97;;;2.69;92.15
31082;BME280;17737;52.586;13.284;2023-02-19T06:06:27;100969.50;;;2.70;92.50
31082;BME280;17737;52.586;13.284;2023-02-19T06:08:56;100966.81;;;2.59;92.29
31082;BME280;17737;52.586;13.284;2023-02-19T06:11:24;100966.59;;;2.49;92.10
31082;BME280;17737;52.586;13.284;2023-02-19T06:13:52;100964.47;;;2.54;92.37
31082;BME280;17737;52.586;13.284;2023-02-19T06:16:20;100965.53;;;2.52;92.09
31082;BME280;17737;52.586;13.284;2023-02-19T06:18:48;100958.13;;;2.44;92.30
31082;BME280;17737;52.586;13.284;2023-02-19T06:21:17;100967.34;;;2.51;92.51
31082;BME280;17737;52.586;13.284;2023-02-19T06:23:45;100965.59;;;2.39;92.28
31082;BME280;17737;52.586;13.284;2023-02-19T06:26:17;100977.06;;;2.39;92.61
31082;BME280;17737;52.586;13.284;2023-02-19T06:28:47;100986.00;;;2.38;92.81
31082;BME280;17737;52.586;13.284;2023-02-19T06:31:18;100994.81;;;2.39;92.71
31082;BME280;17737;52.586;13.284;2023-02-19T06:33:47;101008.88;;;2.41;92.97
31082;BME280;17737;52.586;13.284;2023-02-19T06:36:18;101007.09;;;2.29;93.38
31082;BME280;17737;52.586;13.284;2023-02-19T06:38:47;101020.47;;;2.40;93.08
31082;BME280;17737;52.586;13.284;2023-02-19T06:41:17;101027.81;;;2.36;93.57
31082;BME280;17737;52.586;13.284;2023-02-19T06:43:45;101031.72;;;2.43;93.66
31082;BME280;17737;52.586;13.284;2023-02-19T06:46:13;101032.56;;;2.44;93.84
31082;BME280;17737;52.586;13.284;2023-02-19T06:48:43;101032.47;;;2.45;93.67
31082;BME280;17737;52.586;13.284;2023-02-19T06:51:12;101030.66;;;2.46;93.27
31082;BME280;17737;52.586;13.284;2023-02-19T06:53:44;101040.84;;;2.52;93.09
31082;BME280;17737;52.586;13.284;2023-02-19T06:56:25;101049.25;;;2.59;93.11
31082;BME280;17737;52.586;13.284;2023-02-19T06:58:56;101057.03;;;2.49;92.55
31082;BME280;17737;52.586;13.284;2023-02-19T07:01:26;101060.44;;;2.51;92.81
31082;BME280;17737;52.586;13.284;2023-02-19T07:03:55;101060.59;;;2.61;92.70
31082;BME280;17737;52.586;13.284;2023-02-19T07:06:24;101062.56;;;2.59;92.97
31082;BME280;17737;52.586;13.284;2023-02-19T07:08:54;101066.28;;;2.56;92.51
31082;BME280;17737;52.586;13.284;2023-02-19T07:11:25;101065.31;;;2.57;92.84
31082;BME280;17737;52.586;13.284;2023-02-19T07:13:57;101074.03;;;2.59;93.00
31082;BME280;17737;52.586;13.284;2023-02-19T07:16:27;101070.72;;;2.56;92.60
31082;BME280;17737;52.586;13.284;2023-02-19T07:19:00;101082.53;;;2.64;92.36
31082;BME280;17737;52.586;13.284;2023-02-19T07:21:28;101087.22;;;2.61;92.09
31082;BME280;17737;52.586;13.284;2023-02-19T07:23:56;101091.59;;;2.62;92.20
31082;BME280;17737;52.586;13.284;2023-02-19T07:26:26;101096.56;;;2.66;91.99
31082;BME280;17737;52.586;13.284;2023-02-19T07:28:54;101099.47;;;2.63;92.01
31082;BME280;17737;52.586;13.284;2023-02-19T07:31:22;101097.03;;;2.60;91.86
31082;BME280;17737;52.586;13.284;2023-02-19T07:33:51;101105.13;;;2.59;91.62
31082;BME280;17737;52.586;13.284;2023-02-19T07:36:20;101101.03;;;2.66;91.74
31082;BME280;17737;52.586;13.284;2023-02-19T07:38:52;101099.91;;;2.57;90.99
31082;BME280;17737;52.586;13.284;2023-02-19T07:41:22;101108.50;;;2.61;90.93
31082;BME280;17737;52.586;13.284;2023-02-19T07:43:52;101116.59;;;2.59;91.54
31082;BME280;17737;52.586;13.284;2023-02-19T07:46:21;101122.22;;;2.67;91.26
31082;BME280;17737;52.586;13.284;2023-02-19T07:48:50;101130.63;;;2.61;91.08
31082;BME280;17737;52.586;13.284;2023-02-19T07:51:19;101132.88;;;2.67;91.40
31082;BME280;17737;52.586;13.284;2023-02-19T07:53:48;101129.25;;;2.68;91.31
31082;BME280;17737;52.586;13.284;2023-02-19T07:56:17;101144.22;;;2.69;91.15
31082;BME280;17737;52.586;13.284;2023-02-19T07:58:46;101148.91;;;2.78;91.42
31082;BME280;17737;52.586;13.284;2023-02-19T08:01:17;101151.69;;;2.77;91.35
31082;BME280;17737;52.586;13.284;2023-02-19T08:04:07;101154.44;;;2.75;90.39
31082;BME280;17737;52.586;13.284;2023-02-19T08:06:36;101166.88;;;2.87;90.66
31082;BME280;17737;52.586;13.284;2023-02-19T08:09:04;101172.09;;;3.01;90.60
31082;BME280;17737;52.586;13.284;2023-02-19T08:11:33;101178.81;;;2.94;90.47
31082;BME280;17737;52.586;13.284;2023-02-19T08:14:18;101174.34;;;2.82;89.85
31082;BME280;17737;52.586;13.284;2023-02-19T08:16:48;101188.28;;;2.86;89.99
31082;BME280;17737;52.586;13.284;2023-02-19T08:19:17;101194.66;;;2.96;89.83
31082;BME280;17737;52.586;13.284;2023-02-19T08:21:46;101197.31;;;2.96;89.63
31082;BME280;17737;52.586;13.284;2023-02-19T08:24:14;101210.06;;;3.03;89.29
31082;BME280;17737;52.586;13.284;2023-02-19T08:26:42;101212.00;;;3.01;88.39
31082;BME280;17737;52.586;13.284;2023-02-19T08:29:10;101217.94;;;3.05;88.96
31082;BME280;17737;52.586;13.284;2023-02-19T08:31:38;101220.31;;;2.97;88.79
31082;BME280;17737;52.586;13.284;2023-02-19T08:34:07;101216.13;;;3.05;88.21
31082;BME280;17737;52.586;13.284;2023-02-19T08:36:35;101230.59;;;3.14;87.46
31082;BME280;17737;52.586;13.284;2023-02-19T08:39:04;101230.38;;;3.17;87.51
31082;BME280;17737;52.586;13.284;2023-02-19T08:41:32;101233.47;;;3.23;87.71
31082;BME280;17737;52.586;13.284;2023-02-19T08:44:00;101235.19;;;3.48;87.15
31082;BME280;17737;52.586;13.284;2023-02-19T08:46:28;101239.25;;;3.53;87.38
31082;BME280;17737;52.586;13.284;2023-02-19T08:48:59;101244.63;;;3.64;86.11
31082;BME280;17737;52.586;13.284;2023-02-19T08:51:28;101248.84;;;3.80;85.96
31082;BME280;17737;52.586;13.284;2023-02-19T08:53:56;101258.97;;;3.75;85.10
31082;BME280;17737;52.586;13.284;2023-02-19T08:56:24;101263.06;;;3.67;84.78
31082;BME280;17737;52.586;13.284;2023-02-19T08:58:52;101265.53;;;3.94;84.82
31082;BME280;17737;52.586;13.284;2023-02-19T09:01:20;101263.81;;;3.93;83.83
31082;BME280;17737;52.586;13.284;2023-02-19T09:03:49;101268.06;;;3.96;83.81
31082;BME280;17737;52.586;13.284;2023-02-19T09:06:19;101258.56;;;3.92;84.28
31082;BME280;17737;52.586;13.284;2023-02-19T09:08:48;101258.19;;;4.09;83.68
31082;BME280;17737;52.586;13.284;2023-02-19T09:11:16;101269.41;;;4.25;83.01
31082;BME280;17737;52.586;13.284;2023-02-19T09:13:44;101277.72;;;4.44;83.95
31082;BME280;17737;52.586;13.284;2023-02-19T09:16:12;101272.97;;;4.36;83.27
31082;BME280;17737;52.586;13.284;2023-02-19T09:18:40;101280.03;;;4.48;82.63
31082;BME280;17737;52.586;13.284;2023-02-19T09:21:11;101279.19;;;4.48;82.58
31082;BME280;17737;52.586;13.284;2023-02-19T09:23:39;101284.94;;;4.31;82.09
31082;BME280;17737;52.586;13.284;2023-02-19T09:26:09;101289.16;;;4.22;82.78
31082;BME280;17737;52.586;13.284;2023-02-19T09:28:39;101295.66;;;4.42;81.05
31082;BME280;17737;52.586;13.284;2023-02-19T09:31:10;101298.84;;;4.47;81.97
31082;BME280;17737;52.586;13.284;2023-02-19T09:33:41;101306.28;;;4.65;81.21
31082;BME280;17737;52.586;13.284;2023-02-19T09:36:11;101310.19;;;4.38;80.53
31082;BME280;17737;52.586;13.284;2023-02-19T09:38:40;101306.06;;;4.34;80.16
31082;BME280;17737;52.586;13.284;2023-02-19T09:41:15;101308.09;;;4.54;81.42
31082;BME280;17737;52.586;13.284;2023-02-19T09:43:49;101309.13;;;4.75;81.02
31082;BME280;17737;52.586;13.284;2023-02-19T09:46:24;101309.56;;;4.58;79.36
31082;BME280;17737;52.586;13.284;2023-02-19T09:49:02;101313.84;;;4.71;79.53
31082;BME280;17737;52.586;13.284;2023-02-19T09:51:35;101311.97;;;5.07;79.11
31082;BME280;17737;52.586;13.284;2023-02-19T09:54:12;101329.31;;;4.90;78.73
31082;BME280;17737;52.586;13.284;2023-02-19T09:56:48;101330.88;;;4.93;78.43
31082;BME280;17737;52.586;13.284;2023-02-19T09:59:19;101334.19;;;5.07;78.19
31082;BME280;17737;52.586;13.284;2023-02-19T10:01:55;101333.47;;;4.70;77.15
31082;BME280;17737;52.586;13.284;2023-02-19T10:04:38;101327.56;;;4.78;78.29
31082;BME280;17737;52.586;13.284;2023-02-19T10:07:11;101340.03;;;5.12;77.41
31082;BME280;17737;52.586;13.284;2023-02-19T10:09:40;101325.69;;;5.13;77.97
31082;BME280;17737;52.586;13.284;2023-02-19T10:12:15;101344.41;;;5.35;76.90
31082;BME280;17737;52.586;13.284;2023-02-19T10:14:51;101347.81;;;5.37;76.49
31082;BME280;17737;52.586;13.284;2023-02-19T10:17:26;101358.50;;;5.37;75.44
31082;BME280;17737;52.586;13.284;2023-02-19T10:19:57;101371.16;;;5.46;75.92
31082;BME280;17737;52.586;13.284;2023-02-19T10:22:25;101363.06;;;5.02;75.52
31082;BME280;17737;52.586;13.284;2023-02-19T10:24:54;101376.19;;;5.05;75.93
31082;BME280;17737;52.586;13.284;2023-02-19T10:27:26;101378.84;;;5.05;75.05
31082;BME280;17737;52.586;13.284;2023-02-19T10:29:57;101383.47;;;5.03;74.89
31082;BME280;17737;52.586;13.284;2023-02-19T10:32:27;101382.91;;;5.33;73.72
31082;BME280;17737;52.586;13.284;2023-02-19T10:35:07;101387.81;;;5.50;73.80
31082;BME280;17737;52.586;13.284;2023-02-19T10:37:42;101390.94;;;5.66;72.74
31082;BME280;17737;52.586;13.284;2023-02-19T10:40:15;101405.28;;;5.65;72.83
31082;BME280;17737;52.586;13.284;2023-02-19T10:42:48;101403.97;;;5.92;72.41
31082;BME280;17737;52.586;13.284;2023-02-19T10:45:22;101401.06;;;5.95;70.44
31082;BME280;17737;52.586;13.284;2023-02-19T10:47:52;101405.66;;;6.04;70.44
31082;BME280;17737;52.586;13.284;2023-02-19T10:50:25;101398.56;;;5.26;68.66
31082;BME280;17737;52.586;13.284;2023-02-19T10:52:57;101406.06;;;5.21;69.46
31082;BME280;17737;52.586;13.284;2023-02-19T10:55:30;101426.25;;;5.14;70.48
31082;BME280;17737;52.586;13.284;2023-02-19T10:58:21;101425.94;;;5.63;69.42
31082;BME280;17737;52.586;13.284;2023-02-19T11:01:14;101426.22;;;5.82;68.27
31082;BME280;17737;52.586;13.284;2023-02-19T11:03:46;101438.72;;;5.92;68.07
31082;BME280;17737;52.586;13.284;2023-02-19T11:06:16;101451.41;;;6.13;68.72
31082;BME280;17737;52.586;13.284;2023-02-19T11:08:58;101443.59;;;6.21;67.23
31082;BME280;17737;52.586;13.284;2023-02-19T11:11:30;101458.06;;;6.07;67.64
31082;BME280;17737;52.586;13.284;2023-02-19T11:14:04;101455.38;;;5.96;67.66
31082;BME280;17737;52.586;13.284;2023-02-19T11:16:44;101466.66;;;5.77;66.03
31082;BME280;17737;52.586;13.284;2023-02-19T11:19:27;101471.50;;;5.72;66.26
31082;BME280;17737;52.586;13.284;2023-02-19T11:22:00;101477.09;;;5.69;66.87
31082;BME280;17737;52.586;13.284;2023-02-19T11:24:31;101479.88;;;5.57;67.89
31082;BME280;17737;52.586;13.284;2023-02-19T11:27:05;101465.06;;;5.64;68.18
31082;BME280;17737;52.586;13.284;2023-02-19T11:29:44;101475.41;;;5.68;67.29
31082;BME280;17737;52.586;13.284;2023-02-19T11:32:27;101471.66;;;5.82;67.16
31082;BME280;17737;52.586;13.284;2023-02-19T11:35:16;101479.88;;;5.57;65.65
31082;BME280;17737;52.586;13.284;2023-02-19T11:37:55;101490.78;;;5.43;64.99
31082;BME280;17737;52.586;13.284;2023-02-19T11:40:39;101489.94;;;5.53;64.98
31082;BME280;17737;52.586;13.284;2023-02-19T11:43:25;101492.38;;;5.45;64.92
31082;BME280;17737;52.586;13.284;2023-02-19T11:46:21;101483.34;;;5.35;64.79
31082;BME280;17737;52.586;13.284;2023-02-19T11:49:11;101479.72;;;5.36;65.07
31082;BME280;17737;52.586;13.284;2023-02-19T11:51:53;101471.84;;;5.57;64.50
31082;BME280;17737;52.586;13.284;2023-02-19T11:54:43;101478.63;;;5.39;64.00
31082;BME280;17737;52.586;13.284;2023-02-19T11:57:27;101474.59;;;5.33;63.48
31082;BME280;17737;52.586;13.284;2023-02-19T12:00:26;101480.84;;;5.45;63.11
31082;BME280;17737;52.586;13.284;2023-02-19T12:06:22;101491.63;;;5.43;63.29
31082;BME280;17737;52.586;13.284;2023-02-19T12:09:18;101496.03;;;5.55;63.94
31082;BME280;17737;52.586;13.284;2023-02-19T12:12:26;101503.78;;;5.47;63.78
31082;BME280;17737;52.586;13.284;2023-02-19T12:15:18;101515.53;;;5.34;64.01
31082;BME280;17737;52.586;13.284;2023-02-19T12:18:20;101498.69;;;5.44;63.43
31082;BME280;17737;52.586;13.284;2023-02-19T12:21:09;101494.41;;;5.42;62.92
31082;BME280;17737;52.586;13.284;2023-02-19T12:24:00;101500.25;;;5.47;62.65
31082;BME280;17737;52.586;13.284;2023-02-19T12:26:46;101516.16;;;5.37;63.85
31082;BME280;17737;52.586;13.284;2023-02-19T12:29:46;101515.28;;;5.26;63.89
31082;BME280;17737;52.586;13.284;2023-02-19T12:32:42;101516.66;;;5.42;63.24
31082;BME280;17737;52.586;13.284;2023-02-19T12:35:43;101512.22;;;5.65;61.98
31082;BME280;17737;52.586;13.284;2023-02-19T12:38:26;101526.41;;;5.89;62.29
31082;BME280;17737;52.586;13.284;2023-02-19T12:41:15;101526.78;;;5.95;62.05
31082;BME280;17737;52.586;13.284;2023-02-19T12:43:52;101526.06;;;6.16;60.44
31082;BME280;17737;52.586;13.284;2023-02-19T12:46:29;101522.03;;;6.10;60.71
31082;BME280;17737;52.586;13.284;2023-02-19T12:49:05;101509.50;;;5.99;61.64
31082;BME280;17737;52.586;13.284;2023-02-19T12:51:43;101529.22;;;6.43;60.31
31082;BME280;17737;52.586;13.284;2023-02-19T12:54:17;101525.31;;;6.36;57.88
31082;BME280;17737;52.586;13.284;2023-02-19T12:56:54;101521.31;;;6.19;57.67
31082;BME280;17737;52.586;13.284;2023-02-19T12:59:30;101530.91;;;6.11;58.39
31082;BME280;17737;52.586;13.284;2023-02-19T13:02:11;101539.91;;;6.21;58.11
31082;BME280;17737;52.586;13.284;2023-02-19T13:04:48;101539.91;;;6.32;58.87
31082;BME280;17737;52.586;13.284;2023-02-19T13:07:31;101538.56;;;6.15;58.57
31082;BME280;17737;52.586;13.284;2023-02-19T13:10:14;101551.84;;;6.05;59.33
31082;BME280;17737;52.586;13.284;2023-02-19T13:12:49;101550.84;;;6.06;59.83
31082;BME280;17737;52.586;13.284;2023-02-19T13:15:28;101549.66;;;6.11;58.67
31082;BME280;17737;52.586;13.284;2023-02-19T13:18:03;101551.84;;;6.05;59.53
31082;BME280;17737;52.586;13.284;2023-02-19T13:20:40;101555.47;;;6.27;58.87
31082;BME280;17737;52.586;13.284;2023-02-19T13:23:15;101548.78;;;6.65;58.80
31082;BME280;17737;52.586;13.284;2023-02-19T13:26:18;101550.56;;;6.98;56.63
31082;BME280;17737;52.586;13.284;2023-02-19T13:29:10;101552.69;;;7.15;55.72
31082;BME280;17737;52.586;13.284;2023-02-19T13:32:05;101556.91;;;7.28;56.38
31082;BME280;17737;52.586;13.284;2023-02-19T13:35:02;101564.25;;;7.15;56.02